Time;durP1;ratioP1;P1;durP2;ratioP2;P2;SDS_P1;SDS_P2;PMS_P1;PMS_P2;Temp;Humidity;BMP_temperature;BMP_pressure;BME280_temperature;BME280_humidity;BME280_pressure;Samples;Min_cycle;Max_cycle;Signal;HPM_P1;HPM_P2
2022/04/20 00:03:29;;;;;;;4.63;1.75;;;9.60;99.90;;;;;;15496606;22;20059;-82
2022/04/20 00:09:31;;;;;;;5.68;1.98;;;9.20;99.90;;;;;;15495976;22;20514;-82
2022/04/20 00:15:32;;;;;;;4.00;1.40;;;9.00;99.90;;;;;;15503446;22;20020;-82
2022/04/20 00:21:34;;;;;;;4.13;1.30;;;8.90;99.90;;;;;;15499857;22;20103;-82
2022/04/20 00:27:37;;;;;;;3.15;1.38;;;8.70;99.90;;;;;;15477908;23;20098;-82
2022/04/20 00:33:39;;;;;;;4.80;1.30;;;8.80;99.90;;;;;;15468419;22;20337;-82
2022/04/20 00:39:41;;;;;;;2.50;1.45;;;8.50;99.90;;;;;;15473771;23;20982;-82
2022/04/20 00:45:44;;;;;;;2.65;1.50;;;8.30;99.90;;;;;;15474242;22;20166;-82
2022/04/20 00:52:00;;;;;;;3.80;1.70;;;8.20;99.90;;;;;;15472242;22;20051;-82
2022/04/20 00:58:02;;;;;;;3.00;1.83;;;8.10;99.90;;;;;;15470990;22;20048;-81
2022/04/20 01:04:04;;;;;;;2.72;1.60;;;8.30;99.90;;;;;;15472735;22;20153;-82
2022/04/20 01:10:06;;;;;;;6.47;1.60;;;8.20;99.90;;;;;;15478412;22;20113;-82
2022/04/20 01:16:08;;;;;;;3.35;1.40;;;8.10;99.90;;;;;;15504106;22;20059;-83
2022/04/20 01:22:11;;;;;;;6.57;1.83;;;8.20;99.90;;;;;;15502958;22;20047;-83
2022/04/20 01:28:15;;;;;;;5.15;1.60;;;8.30;99.90;;;;;;15507862;22;20101;-81
2022/04/20 01:34:17;;;;;;;4.07;1.50;;;8.30;99.90;;;;;;15504883;22;20460;-82
2022/04/20 01:40:19;;;;;;;3.03;1.50;;;8.20;99.90;;;;;;15479646;22;20111;-81
2022/04/20 01:46:20;;;;;;;3.15;1.50;;;8.20;99.90;;;;;;15490010;22;20028;-82
2022/04/20 01:52:22;;;;;;;3.38;1.60;;;8.20;99.90;;;;;;15482498;22;20031;-81
2022/04/20 01:58:24;;;;;;;4.00;1.73;;;8.30;99.90;;;;;;15478264;23;20075;-81
2022/04/20 02:04:26;;;;;;;4.13;1.50;;;8.10;99.90;;;;;;15502826;22;20099;-82
2022/04/20 02:10:28;;;;;;;2.47;1.35;;;7.80;99.90;;;;;;15479884;22;20097;-81
2022/04/20 02:16:30;;;;;;;2.20;1.40;;;7.50;99.90;;;;;;15483797;23;20047;-82
2022/04/20 02:22:32;;;;;;;3.15;1.48;;;7.30;99.90;;;;;;15482367;22;20055;-81
2022/04/20 02:28:34;;;;;;;3.67;1.50;;;7.20;99.90;;;;;;15479754;23;20067;-81
2022/04/20 02:34:40;;;;;;;3.13;1.60;;;7.20;99.90;;;;;;15505535;22;20031;-81
2022/04/20 02:40:42;;;;;;;2.47;1.45;;;7.20;99.90;;;;;;15478920;22;20083;-81
2022/04/20 02:46:44;;;;;;;2.58;1.35;;;7.10;99.90;;;;;;15481251;22;20469;-82
2022/04/20 02:52:46;;;;;;;2.22;1.25;;;7.20;99.90;;;;;;15499942;22;20059;-82
2022/04/20 02:58:47;;;;;;;7.85;1.70;;;7.30;99.90;;;;;;15475205;23;20059;-82
2022/04/20 03:04:49;;;;;;;3.63;1.30;;;7.30;99.90;;;;;;15478352;22;20372;-81
2022/04/20 03:10:51;;;;;;;4.18;1.30;;;7.30;99.90;;;;;;15477435;22;20082;-82
2022/04/20 03:16:53;;;;;;;2.80;1.38;;;7.00;99.90;;;;;;15476548;23;20110;-82
2022/04/20 03:22:55;;;;;;;3.10;1.48;;;7.00;99.90;;;;;;15501650;22;20122;-81
2022/04/20 03:28:57;;;;;;;4.65;1.60;;;7.10;99.90;;;;;;15498238;22;20055;-81
2022/04/20 03:35:00;;;;;;;3.42;1.60;;;7.00;99.90;;;;;;15502460;22;20126;-82
2022/04/20 03:41:04;;;;;;;3.50;1.60;;;7.00;99.90;;;;;;15476896;22;20098;-81
2022/04/20 03:47:06;;;;;;;3.05;1.60;;;6.90;99.90;;;;;;15471510;22;20035;-82
2022/04/20 03:53:08;;;;;;;2.78;1.50;;;6.70;99.90;;;;;;15496317;22;20075;-81
2022/04/20 03:59:10;;;;;;;5.00;1.70;;;6.60;99.90;;;;;;15472470;22;20597;-82
2022/04/20 04:05:12;;;;;;;3.45;1.48;;;6.50;99.90;;;;;;15494791;22;20469;-82
2022/04/20 04:11:14;;;;;;;3.85;1.52;;;6.50;99.90;;;;;;15473860;22;20409;-82
2022/04/20 04:17:16;;;;;;;3.30;1.80;;;6.70;99.90;;;;;;15500155;22;20123;-83
2022/04/20 04:23:18;;;;;;;3.42;1.65;;;6.90;99.90;;;;;;15497830;22;20524;-82
2022/04/20 04:29:20;;;;;;;5.35;1.67;;;6.90;99.90;;;;;;15506046;22;20019;-81
2022/04/20 04:35:21;;;;;;;4.25;1.60;;;6.80;99.90;;;;;;15516372;22;20020;-82
2022/04/20 04:41:23;;;;;;;3.08;1.63;;;6.80;99.90;;;;;;15499783;22;20031;-82
2022/04/20 04:53:45;;;;;;;4.47;1.88;;;6.60;99.90;;;;;;15472722;22;20024;-82
2022/04/20 04:59:47;;;;;;;4.43;1.60;;;6.50;99.90;;;;;;15498857;22;20107;-81
2022/04/20 05:05:55;;;;;;;3.40;1.83;;;6.40;99.90;;;;;;15477931;22;20833;-82
2022/04/20 05:11:57;;;;;;;3.83;1.73;;;6.50;99.90;;;;;;15501258;22;20028;-81
2022/04/20 05:17:59;;;;;;;3.80;1.50;;;7.10;99.90;;;;;;15499596;22;20059;-81
2022/04/20 05:24:02;;;;;;;3.28;1.67;;;7.30;99.90;;;;;;15494955;22;20032;-82
2022/04/20 05:30:05;;;;;;;3.65;1.63;;;8.00;99.90;;;;;;15499855;22;20028;-81
2022/04/20 05:36:07;;;;;;;4.40;1.63;;;8.80;99.90;;;;;;15502392;22;20337;-81
2022/04/20 05:42:10;;;;;;;4.97;1.67;;;9.00;99.90;;;;;;15473946;22;20089;-81
2022/04/20 05:48:14;;;;;;;5.38;1.70;;;9.90;99.90;;;;;;15478584;22;20353;-82
2022/04/20 05:54:16;;;;;;;7.70;1.80;;;11.20;99.90;;;;;;15478904;22;20194;-81
2022/04/20 06:00:19;;;;;;;2.97;1.70;;;10.80;99.90;;;;;;15475701;22;20039;-81
2022/04/20 06:06:20;;;;;;;3.67;2.13;;;10.30;99.90;;;;;;15476934;23;20497;-82
2022/04/20 06:12:22;;;;;;;4.80;2.03;;;9.90;99.90;;;;;;15478731;22;20126;-81
2022/04/20 06:18:24;;;;;;;3.63;1.90;;;9.90;99.90;;;;;;15498995;22;20134;-82
2022/04/20 06:24:26;;;;;;;4.43;1.83;;;9.80;99.90;;;;;;15478867;22;20040;-82
2022/04/20 06:30:28;;;;;;;4.10;1.95;;;9.90;99.90;;;;;;15499282;22;20078;-82
2022/04/20 06:36:30;;;;;;;3.92;1.80;;;10.20;99.90;;;;;;15497997;22;20062;-82
2022/04/20 06:42:33;;;;;;;3.70;2.20;;;9.80;99.90;;;;;;15475544;22;20150;-83
2022/04/20 06:48:34;;;;;;;3.05;1.90;;;9.90;99.90;;;;;;15500285;22;20106;-82
2022/04/20 07:00:57;;;;;;;4.80;2.40;;;10.10;99.90;;;;;;15479355;22;20563;-82
2022/04/20 07:06:58;;;;;;;4.13;2.13;;;10.00;99.90;;;;;;15503525;22;20086;-82
2022/04/20 07:13:01;;;;;;;5.63;2.00;;;10.30;99.90;;;;;;15503170;22;20153;-82
2022/04/20 07:19:03;;;;;;;4.38;2.20;;;10.60;99.90;;;;;;15501939;22;20028;-82
2022/04/20 07:25:05;;;;;;;4.25;1.95;;;10.50;99.90;;;;;;15498721;22;20527;-83
2022/04/20 07:31:07;;;;;;;4.57;2.17;;;10.80;99.90;;;;;;15503173;22;20105;-82
2022/04/20 07:37:09;;;;;;;5.00;2.45;;;10.90;99.90;;;;;;15505351;22;20066;-81
2022/04/20 07:43:11;;;;;;;5.03;2.28;;;11.00;99.90;;;;;;15476812;22;20058;-81
2022/04/20 07:55:34;;;;;;;5.97;2.50;;;11.00;99.90;;;;;;15483309;22;20020;-82
2022/04/20 08:01:36;;;;;;;3.70;1.90;;;11.00;99.90;;;;;;15508831;22;20012;-82
2022/04/20 08:07:38;;;;;;;4.18;2.22;;;11.40;99.90;;;;;;15486508;23;20155;-82
2022/04/20 08:20:08;;;;;;;6.75;2.47;;;11.70;99.90;;;;;;15482515;22;20103;-82
2022/04/20 08:26:10;;;;;;;8.00;2.60;;;11.70;99.90;;;;;;15476037;22;20032;-82
2022/04/20 08:32:12;;;;;;;4.03;2.00;;;11.80;99.90;;;;;;15500182;22;20162;-81
2022/04/20 08:38:14;;;;;;;4.07;2.00;;;12.00;99.90;;;;;;15496160;22;20020;-82
2022/04/20 08:44:26;;;;;;;4.88;2.03;;;12.10;99.90;;;;;;15496562;22;20098;-82
2022/04/20 08:50:29;;;;;;;10.30;2.13;;;12.20;99.90;;;;;;15473753;22;20024;-82
2022/04/20 09:03:00;;;;;;;3.63;2.00;;;12.50;99.90;;;;;;15474227;22;20105;-82
2022/04/20 09:09:02;;;;;;;4.88;1.95;;;12.50;99.90;;;;;;15477094;22;20024;-82
2022/04/20 09:15:04;;;;;;;5.70;2.05;;;13.00;99.90;;;;;;15474402;22;20588;-82
2022/04/20 09:21:09;;;;;;;4.47;1.98;;;12.90;99.90;;;;;;15474205;22;20032;-82
2022/04/20 09:27:11;;;;;;;3.88;1.70;;;13.40;99.90;;;;;;15501395;22;20107;-82
2022/04/20 09:33:15;;;;;;;2.65;1.30;;;13.60;99.90;;;;;;15503614;22;20103;-82
2022/04/20 09:39:17;;;;;;;2.50;1.40;;;13.70;99.90;;;;;;15502233;22;20570;-82
2022/04/20 09:45:20;;;;;;;4.85;1.45;;;13.70;99.90;;;;;;15475780;22;20109;-82
2022/04/20 09:51:21;;;;;;;4.32;1.80;;;13.90;99.90;;;;;;15501957;22;20031;-82
2022/04/20 09:57:24;;;;;;;4.47;1.80;;;14.20;99.90;;;;;;15556580;22;20098;-82
2022/04/20 10:03:31;;;;;;;3.33;1.48;;;14.20;99.90;;;;;;15554427;22;20019;-83
2022/04/20 10:09:33;;;;;;;3.28;1.80;;;14.30;99.90;;;;;;15555980;22;20073;-82
2022/04/20 10:21:57;;;;;;;3.67;1.70;;;13.90;99.90;;;;;;15552777;22;20153;-83
2022/04/20 10:28:23;;;;;;;3.97;1.60;;;14.20;99.90;;;;;;15555336;22;20108;-83
2022/04/20 10:34:30;;;;;;;3.15;1.83;;;14.60;99.90;;;;;;15551061;22;20266;-83
2022/04/20 10:40:59;;;;;;;4.50;1.85;;;14.90;99.90;;;;;;15552598;22;20023;-83
2022/04/20 10:47:05;;;;;;;3.55;2.03;;;15.10;99.90;;;;;;15545471;22;20451;-83
2022/04/20 10:53:22;;;;;;;4.15;1.83;;;15.30;99.90;;;;;;15552453;22;20488;-83
2022/04/20 10:59:24;;;;;;;5.03;2.22;;;15.50;99.90;;;;;;15552192;22;20043;-83
2022/04/20 11:05:26;;;;;;;4.68;2.00;;;15.80;99.90;;;;;;15552955;22;20046;-83
2022/04/20 11:18:38;;;;;;;3.97;2.17;;;15.70;99.90;;;;;;15244954;23;20104;-83
2022/04/20 11:24:40;;;;;;;3.45;1.92;;;16.10;99.90;;;;;;15512351;22;20043;-83
2022/04/20 11:30:44;;;;;;;6.88;2.45;;;16.00;99.90;;;;;;15552502;22;20047;-83
2022/04/20 11:36:48;;;;;;;6.00;2.35;;;15.90;99.90;;;;;;15554564;22;20023;-83
2022/04/20 11:43:08;;;;;;;6.63;2.60;;;16.20;99.90;;;;;;15552265;22;20031;-84
2022/04/20 11:49:39;;;;;;;4.20;2.58;;;16.40;99.90;;;;;;15555327;22;20100;-83
2022/04/20 11:55:46;;;;;;;6.55;3.08;;;16.20;99.90;;;;;;15550038;22;20023;-84
2022/04/20 12:01:48;;;;;;;5.93;3.08;;;16.10;99.90;;;;;;15549297;22;20193;-83
2022/04/20 12:07:50;;;;;;;5.20;2.97;;;16.20;99.90;;;;;;15547543;22;20103;-82
2022/04/20 12:13:54;;;;;;;5.50;3.30;;;16.80;99.90;;;;;;15566420;22;20027;-83
2022/04/20 12:19:56;;;;;;;4.72;2.85;;;16.30;99.90;;;;;;15551000;22;20102;-84
2022/04/20 12:26:01;;;;;;;5.57;2.53;;;16.60;99.90;;;;;;15548543;22;20773;-84
2022/04/20 12:32:03;;;;;;;5.90;3.17;;;17.10;99.90;;;;;;15550787;22;20141;-83
2022/04/20 12:38:07;;;;;;;6.50;3.20;;;17.10;99.90;;;;;;15550655;22;20146;-83
2022/04/20 12:44:37;;;;;;;9.00;3.47;;;16.90;99.90;;;;;;15550211;22;20028;-83
2022/04/20 12:50:46;;;;;;;5.78;2.47;;;17.60;99.90;;;;;;15549464;22;20024;-83
2022/04/20 13:03:20;;;;;;;4.47;3.10;;;17.30;99.90;;;;;;15554555;22;20459;-83
2022/04/20 13:09:22;;;;;;;;;;;17.50;99.90;;;;;;15554207;22;20747;-82
2022/04/20 13:15:25;;;;;;;6.57;2.85;;;17.10;99.90;;;;;;15529821;22;19919;-83
2022/04/20 13:21:27;;;;;;;4.07;2.28;;;17.80;99.90;;;;;;15554056;22;20083;-84
2022/04/20 13:33:49;;;;;;;4.22;2.00;;;17.50;99.90;;;;;;15554139;22;20106;-82
2022/04/20 13:39:51;;;;;;;5.97;1.98;;;17.40;99.90;;;;;;15555012;22;20019;-83
2022/04/20 13:45:53;;;;;;;4.90;2.40;;;17.30;99.90;;;;;;15552912;22;20116;-82
2022/04/20 13:51:55;;;;;;;3.00;1.58;;;17.10;99.90;;;;;;15552608;22;20082;-84
2022/04/20 13:57:57;;;;;;;5.30;2.13;;;17.00;99.90;;;;;;15552431;22;20047;-83
2022/04/20 14:03:59;;;;;;;2.85;1.75;;;17.20;99.90;;;;;;15549420;22;20027;-82
2022/04/20 14:10:03;;;;;;;4.18;2.22;;;16.90;99.90;;;;;;15551025;22;20097;-83
2022/04/20 14:16:05;;;;;;;3.78;1.85;;;17.20;99.90;;;;;;15554269;22;20055;-83
2022/04/20 14:22:07;;;;;;;3.22;1.77;;;16.90;99.90;;;;;;15550163;22;20023;-83
2022/04/20 14:34:29;;;;;;;4.95;2.03;;;16.80;99.90;;;;;;15554512;22;20111;-84
2022/04/20 14:40:31;;;;;;;4.20;1.77;;;17.00;99.90;;;;;;15553807;22;20692;-82
2022/04/20 14:46:33;;;;;;;4.78;1.75;;;16.70;99.90;;;;;;15557289;22;20027;-84
2022/04/20 14:52:35;;;;;;;3.22;1.80;;;17.00;99.90;;;;;;15553294;22;20452;-82
2022/04/20 14:58:37;;;;;;;3.17;1.80;;;17.10;99.90;;;;;;15555987;22;20137;-82
2022/04/20 15:04:39;;;;;;;3.13;1.70;;;17.20;99.90;;;;;;15556245;22;20027;-84
2022/04/20 15:10:41;;;;;;;4.03;1.20;;;17.20;99.90;;;;;;15555283;22;20023;-82
2022/04/20 15:16:45;;;;;;;2.97;1.25;;;17.40;99.90;;;;;;15558377;22;20055;-83
2022/04/20 15:22:47;;;;;;;3.67;1.52;;;17.30;99.90;;;;;;15557724;22;20019;-82
2022/04/20 15:28:52;;;;;;;2.85;1.48;;;17.20;99.90;;;;;;15554683;22;20117;-84
2022/04/20 15:35:04;;;;;;;4.15;1.48;;;16.80;99.90;;;;;;15556200;22;20027;-82
2022/04/20 15:41:09;;;;;;;2.30;1.13;;;16.40;99.90;;;;;;15567852;22;20024;-81
2022/04/20 15:47:13;;;;;;;3.80;1.60;;;15.90;99.90;;;;;;15550522;22;20027;-82
2022/04/20 15:53:15;;;;;;;;;;;15.80;99.90;;;;;;15551957;22;20094;-81
2022/04/20 16:05:37;;;;;;;2.60;1.20;;;16.00;99.90;;;;;;15550508;22;20448;-81
2022/04/20 16:11:39;;;;;;;2.47;1.38;;;16.50;99.90;;;;;;15547463;22;20102;-83
2022/04/20 16:17:43;;;;;;;3.90;1.60;;;17.00;99.90;;;;;;15549072;22;20020;-84
2022/04/20 16:23:45;;;;;;;4.68;1.50;;;16.80;99.90;;;;;;15549913;22;20142;-81
2022/04/20 16:29:46;;;;;;;7.40;1.33;;;17.00;99.90;;;;;;15549441;22;20499;-83
2022/04/20 16:35:49;;;;;;;2.70;1.20;;;16.60;99.90;;;;;;15544231;22;20031;-83
2022/04/20 16:41:51;;;;;;;2.00;1.02;;;16.40;99.90;;;;;;15554360;22;20054;-83
2022/04/20 16:47:53;;;;;;;3.22;1.02;;;16.40;99.90;;;;;;15552669;22;20535;-82
2022/04/20 16:53:55;;;;;;;3.05;0.82;;;16.20;99.90;;;;;;15552912;22;20363;-82
2022/04/20 16:59:56;;;;;;;4.32;1.10;;;16.00;99.90;;;;;;15555893;22;20103;-83
2022/04/20 17:05:59;;;;;;;4.70;1.20;;;16.00;99.90;;;;;;15552102;22;20066;-82
2022/04/20 17:12:01;;;;;;;5.55;1.00;;;15.90;99.90;;;;;;15540951;22;20028;-82
2022/04/20 17:18:03;;;;;;;3.80;1.20;;;16.10;99.90;;;;;;15548889;22;20105;-83
2022/04/20 17:30:26;;;;;;;4.00;1.73;;;15.90;99.90;;;;;;15556236;22;20557;-80
2022/04/20 17:36:39;;;;;;;5.70;1.38;;;15.50;99.90;;;;;;15554469;22;20030;-81
2022/04/20 17:42:41;;;;;;;3.65;1.33;;;15.20;99.90;;;;;;15555846;22;20034;-81
2022/04/20 17:48:43;;;;;;;2.33;1.17;;;15.00;99.90;;;;;;15550811;22;20069;-83
2022/04/20 17:54:45;;;;;;;2.97;0.80;;;14.90;99.90;;;;;;15552854;22;20027;-81
2022/04/20 18:00:47;;;;;;;2.60;1.10;;;14.50;99.90;;;;;;15552098;22;20149;-83
2022/04/20 18:06:49;;;;;;;2.70;1.10;;;14.20;99.90;;;;;;15550301;22;20081;-83
2022/04/20 18:12:51;;;;;;;2.38;1.08;;;13.90;99.90;;;;;;15553662;22;20118;-83
2022/04/20 18:18:53;;;;;;;4.60;1.17;;;13.80;99.90;;;;;;15553910;22;20539;-83
2022/04/20 18:24:55;;;;;;;4.07;1.40;;;13.70;99.90;;;;;;15553138;22;20030;-81
2022/04/20 18:30:57;;;;;;;2.95;1.10;;;13.60;99.90;;;;;;15549757;22;20406;-82
2022/04/20 18:36:59;;;;;;;4.70;1.30;;;13.50;99.90;;;;;;15552846;22;20035;-83
2022/04/20 18:43:00;;;;;;;3.13;1.30;;;13.30;99.90;;;;;;15551674;22;20019;-81
2022/04/20 18:49:02;;;;;;;5.70;1.27;;;13.10;99.90;;;;;;15551991;22;20175;-83
2022/04/20 19:01:25;;;;;;;2.42;1.20;;;12.80;99.90;;;;;;15554390;22;20111;-84
2022/04/20 19:07:27;;;;;;;2.25;1.10;;;12.70;99.90;;;;;;15554870;22;20400;-83
2022/04/20 19:13:29;;;;;;;4.00;1.00;;;12.80;99.90;;;;;;15548679;22;20472;-83
2022/04/20 19:19:31;;;;;;;4.07;1.05;;;12.70;99.90;;;;;;15553955;22;20085;-81
2022/04/20 19:25:33;;;;;;;3.83;2.05;;;12.80;99.90;;;;;;15553300;22;20568;-83
2022/04/20 19:31:36;;;;;;;6.80;1.70;;;12.60;99.90;;;;;;15552738;22;20097;-83
2022/04/20 19:37:37;;;;;;;3.97;1.48;;;12.40;99.90;;;;;;15560062;22;20051;-83
2022/04/20 19:43:40;;;;;;;4.70;2.15;;;12.30;99.90;;;;;;15557124;22;20463;-82
2022/04/20 19:49:43;;;;;;;2.88;1.50;;;12.00;99.90;;;;;;15551610;22;20046;-82
2022/04/20 19:55:45;;;;;;;3.58;1.20;;;11.70;99.90;;;;;;15550676;22;20073;-83
2022/04/20 20:01:50;;;;;;;4.82;1.55;;;11.50;99.90;;;;;;15552553;22;20813;-82
2022/04/20 20:07:53;;;;;;;4.30;2.28;;;11.50;99.90;;;;;;15552842;22;20027;-84
2022/04/20 20:13:55;;;;;;;2.17;1.23;;;11.50;99.90;;;;;;15550825;22;20051;-80
2022/04/20 20:19:57;;;;;;;3.20;1.40;;;11.50;99.90;;;;;;15550244;22;20158;-81
2022/04/20 20:32:23;;;;;;;;;;;11.20;99.90;;;;;;15505244;22;20028;-81
2022/04/20 20:38:25;;;;;;;3.90;1.50;;;11.30;99.90;;;;;;15551403;22;19919;-83
2022/04/20 20:44:30;;;;;;;2.75;1.55;;;11.10;99.90;;;;;;15553059;22;20051;-81
2022/04/20 20:50:35;;;;;;;3.53;1.83;;;10.90;99.90;;;;;;15549618;22;20024;-81
2022/04/20 20:56:39;;;;;;;5.38;2.28;;;11.00;99.90;;;;;;15551947;22;20075;-82
2022/04/20 21:02:40;;;;;;;3.83;2.15;;;11.10;99.90;;;;;;15556036;22;20113;-83
2022/04/20 21:08:48;;;;;;;3.13;1.70;;;11.00;99.90;;;;;;15550694;22;20609;-81
2022/04/20 21:14:51;;;;;;;4.47;1.70;;;10.80;99.90;;;;;;15550941;22;20051;-83
2022/04/20 21:20:53;;;;;;;2.63;1.42;;;10.70;99.90;;;;;;15553651;22;20149;-84
2022/04/20 21:26:55;;;;;;;5.35;2.17;;;10.50;99.90;;;;;;15554460;22;20452;-81
2022/04/20 21:32:58;;;;;;;3.95;1.80;;;10.30;99.90;;;;;;15559116;22;20106;-81
2022/04/20 21:39:00;;;;;;;9.65;2.30;;;10.30;99.90;;;;;;15562983;22;20121;-82
2022/04/20 21:45:03;;;;;;;3.80;2.10;;;10.20;99.90;;;;;;15577202;22;20066;-82
2022/04/20 21:51:05;;;;;;;4.47;1.77;;;10.10;99.90;;;;;;15539179;22;20059;-83
2022/04/20 21:57:08;;;;;;;6.50;2.20;;;10.10;99.90;;;;;;15595944;22;20019;-81
2022/04/20 22:09:50;;;;;;;4.20;1.73;;;10.10;99.90;;;;;;15544511;22;20577;-82
2022/04/20 22:15:52;;;;;;;4.30;1.63;;;10.20;99.90;;;;;;15589882;22;20024;-83
2022/04/20 22:21:55;;;;;;;7.70;1.92;;;10.20;99.90;;;;;;15577572;22;20400;-81
2022/04/20 22:27:57;;;;;;;4.65;1.70;;;10.10;99.90;;;;;;15558300;22;20050;-81
2022/04/20 22:34:00;;;;;;;4.07;2.17;;;10.30;99.90;;;;;;15553164;22;20383;-81
2022/04/20 22:40:02;;;;;;;5.45;1.85;;;10.30;99.90;;;;;;15575013;22;20072;-82
2022/04/20 22:46:04;;;;;;;7.85;2.10;;;10.30;99.90;;;;;;15568251;22;20532;-81
2022/04/20 22:52:08;;;;;;;3.95;1.63;;;10.20;99.90;;;;;;15584806;22;20047;-82
2022/04/20 22:58:09;;;;;;;5.43;1.63;;;10.10;99.90;;;;;;15551153;22;20647;-82
2022/04/20 23:04:11;;;;;;;2.08;1.30;;;10.00;99.90;;;;;;15554317;22;20519;-82
2022/04/20 23:10:13;;;;;;;5.38;1.60;;;10.10;99.90;;;;;;15568420;22;20624;-81
2022/04/20 23:16:16;;;;;;;2.10;1.13;;;10.10;99.90;;;;;;15578983;22;20020;-80
2022/04/20 23:22:18;;;;;;;2.25;1.30;;;10.00;99.90;;;;;;15574147;22;20034;-80
2022/04/20 23:28:32;;;;;;;3.72;1.40;;;10.00;99.90;;;;;;15568013;22;20027;-83
2022/04/20 23:34:33;;;;;;;2.43;1.30;;;10.00;99.90;;;;;;15559843;22;20869;-83
2022/04/20 23:40:36;;;;;;;3.20;1.30;;;9.80;99.90;;;;;;15569945;22;20472;-82
2022/04/20 23:46:37;;;;;;;4.70;1.50;;;9.80;99.90;;;;;;15562612;22;20448;-81
2022/04/20 23:52:39;;;;;;;1.90;1.20;;;9.80;99.90;;;;;;15564730;22;20019;-81
2022/04/20 23:58:41;;;;;;;2.75;1.20;;;9.70;99.90;;;;;;15548298;22;20922;-81
